createdAt,value
2022-09-23T00:01:22.287Z,7.93
2022-09-23T00:03:49.775Z,7.97
2022-09-23T00:06:22.241Z,8.30
2022-09-23T00:08:50.580Z,8.18
2022-09-23T00:11:21.001Z,8.48
2022-09-23T00:13:50.159Z,8.25
2022-09-23T00:16:21.347Z,8.50
2022-09-23T00:18:50.192Z,8.68
2022-09-23T00:21:19.139Z,8.75
2022-09-23T00:23:46.373Z,8.90
2022-09-23T00:26:16.123Z,8.40
2022-09-23T00:28:43.465Z,8.52
2022-09-23T00:31:13.368Z,8.55
2022-09-23T00:33:40.818Z,8.73
2022-09-23T00:36:16.607Z,9.20
2022-09-23T00:38:45.336Z,9.10
2022-09-23T00:41:15.243Z,9.52
2022-09-23T00:43:44.340Z,9.68
2022-09-23T00:46:20.420Z,8.93
2022-09-23T00:48:50.709Z,9.27
2022-09-23T00:51:23.014Z,9.85
2022-09-23T00:53:52.157Z,9.30
2022-09-23T00:56:22.731Z,9.40
2022-09-23T00:58:51.652Z,9.25
2022-09-23T01:01:20.889Z,9.37
2022-09-23T01:03:49.074Z,9.70
2022-09-23T01:06:16.252Z,9.20
2022-09-23T01:08:45.890Z,9.45
2022-09-23T01:11:37.361Z,9.50
2022-09-23T01:14:53.362Z,9.48
2022-09-23T01:18:21.585Z,9.75
2022-09-23T01:21:14.926Z,9.75
2022-09-23T01:24:14.923Z,9.30
2022-09-23T01:27:36.266Z,9.47
2022-09-23T01:30:33.996Z,9.90
2022-09-23T01:33:04.680Z,10.15
2022-09-23T01:35:39.445Z,9.45
2022-09-23T01:38:28.450Z,10.20
2022-09-23T01:41:03.376Z,10.05
2022-09-23T01:43:50.814Z,9.73
2022-09-23T01:46:24.117Z,10.60
2022-09-23T01:49:15.375Z,10.15
2022-09-23T01:51:49.905Z,9.73
2022-09-23T01:54:55.292Z,9.80
2022-09-23T01:57:31.813Z,10.40
2022-09-23T02:00:11.585Z,10.25
2022-09-23T02:02:57.584Z,10.20
2022-09-23T02:05:30.343Z,10.30
2022-09-23T02:08:08.703Z,10.00
2022-09-23T02:10:47.166Z,10.10
2022-09-23T02:13:22.062Z,10.07
2022-09-23T02:15:53.897Z,9.80
2022-09-23T02:18:25.244Z,9.65
2022-09-23T02:21:00.342Z,10.10
2022-09-23T02:23:33.858Z,10.10
2022-09-23T02:26:29.437Z,9.90
2022-09-23T02:29:32.147Z,9.88
2022-09-23T02:32:17.748Z,9.87
2022-09-23T02:35:01.047Z,10.20
2022-09-23T02:37:37.104Z,10.27
2022-09-23T02:40:16.923Z,10.63
2022-09-23T02:43:29.902Z,10.53
2022-09-23T02:45:57.144Z,10.35
2022-09-23T02:48:34.098Z,10.55
2022-09-23T02:51:03.563Z,10.57
2022-09-23T02:53:35.125Z,10.40
2022-09-23T02:56:12.670Z,10.57
2022-09-23T02:58:39.850Z,9.98
2022-09-23T03:01:26.261Z,10.98
2022-09-23T03:04:09.380Z,10.98
2022-09-23T03:07:00.964Z,11.35
2022-09-23T03:09:49.852Z,11.33
2022-09-23T03:12:39.830Z,11.30
2022-09-23T03:15:26.779Z,10.77
2022-09-23T03:18:01.306Z,10.77
2022-09-23T03:20:46.203Z,11.38
2022-09-23T03:23:15.522Z,11.27
2022-09-23T03:25:47.090Z,10.90
2022-09-23T03:28:17.320Z,10.75
2022-09-23T03:30:45.016Z,11.05
2022-09-23T03:33:16.581Z,11.57
2022-09-23T03:36:23.672Z,10.75
2022-09-23T03:38:54.565Z,11.07
2022-09-23T03:41:41.836Z,10.77
2022-09-23T03:44:10.517Z,10.90
2022-09-23T03:46:37.988Z,11.40
2022-09-23T03:49:15.364Z,10.93
2022-09-23T03:51:44.693Z,11.17
2022-09-23T03:54:12.233Z,10.80
2022-09-23T03:56:39.362Z,10.35
2022-09-23T03:59:06.551Z,10.67
2022-09-23T04:01:33.729Z,10.20
2022-09-23T04:04:01.105Z,10.32
2022-09-23T04:06:28.275Z,10.13
2022-09-23T04:08:55.487Z,10.50
2022-09-23T04:11:22.649Z,10.00
2022-09-23T04:13:49.792Z,10.20
2022-09-23T04:16:17.061Z,10.32
2022-09-23T04:18:44.259Z,9.90
2022-09-23T04:21:11.456Z,9.77
2022-09-23T04:23:38.600Z,9.07
2022-09-23T04:26:06.239Z,8.80
2022-09-23T04:28:34.238Z,8.75
2022-09-23T04:31:07.435Z,9.27
2022-09-23T04:33:34.865Z,9.53
2022-09-23T04:36:02.077Z,9.20
2022-09-23T04:38:29.329Z,9.05
2022-09-23T04:40:56.763Z,9.13
2022-09-23T04:43:23.999Z,8.60
2022-09-23T04:45:59.726Z,8.55
2022-09-23T04:48:27.362Z,8.50
2022-09-23T04:50:54.863Z,8.02
2022-09-23T04:53:22.465Z,8.40
2022-09-23T04:55:50.177Z,8.03
2022-09-23T04:58:17.444Z,8.40
2022-09-23T05:00:44.790Z,8.10
2022-09-23T05:03:13.736Z,7.90
2022-09-23T05:05:40.928Z,7.80
2022-09-23T05:08:08.339Z,8.25
2022-09-23T05:10:35.484Z,8.30
2022-09-23T05:13:02.655Z,7.68
2022-09-23T05:15:29.814Z,7.82
2022-09-23T05:18:00.231Z,7.90
2022-09-23T05:20:27.385Z,8.00
2022-09-23T05:22:56.001Z,7.82
2022-09-23T05:25:23.741Z,6.95
2022-09-23T05:27:50.890Z,7.75
2022-09-23T05:30:18.022Z,7.70
2022-09-23T05:32:45.536Z,7.90
2022-09-23T05:35:12.726Z,7.88
2022-09-23T05:37:39.895Z,8.03
2022-09-23T05:40:07.402Z,7.77
2022-09-23T05:42:34.873Z,7.80
2022-09-23T05:45:02.127Z,7.75
2022-09-23T05:47:29.258Z,7.82
2022-09-23T05:50:00.048Z,7.75
2022-09-23T05:52:27.741Z,8.00
2022-09-23T05:54:55.231Z,7.93
2022-09-23T05:57:22.409Z,8.27
2022-09-23T05:59:49.562Z,7.70
2022-09-23T06:02:16.752Z,8.17
2022-09-23T06:04:43.938Z,8.00
2022-09-23T06:07:11.197Z,7.88
2022-09-23T06:09:38.414Z,8.20
2022-09-23T06:12:06.278Z,7.60
2022-09-23T06:14:33.451Z,7.93
2022-09-23T06:17:00.602Z,8.50
2022-09-23T06:19:27.747Z,8.10
2022-09-23T06:21:54.914Z,8.30
2022-09-23T06:24:25.928Z,8.38
2022-09-23T06:26:55.890Z,8.33
2022-09-23T06:29:23.378Z,8.53
2022-09-23T06:31:50.682Z,8.57
2022-09-23T06:34:18.236Z,8.60
2022-09-23T06:36:46.629Z,8.30
2022-09-23T06:39:14.923Z,8.60
2022-09-23T06:41:43.229Z,8.73
2022-09-23T06:44:14.497Z,8.48
2022-09-23T06:46:41.831Z,8.20
2022-09-23T06:49:09.181Z,8.90
2022-09-23T06:51:36.628Z,8.77
2022-09-23T06:54:03.925Z,8.57
2022-09-23T06:56:36.125Z,8.60
2022-09-23T06:59:06.629Z,8.50
2022-09-23T07:01:34.348Z,8.23
2022-09-23T07:04:01.833Z,8.32
2022-09-23T07:06:29.047Z,9.07
2022-09-23T07:08:56.218Z,8.30
2022-09-23T07:11:23.469Z,8.43
2022-09-23T07:13:50.746Z,8.20
2022-09-23T07:16:18.423Z,8.20
2022-09-23T07:18:45.681Z,8.30
2022-09-23T07:21:18.449Z,8.45
2022-09-23T07:23:48.402Z,8.63
2022-09-23T07:26:17.977Z,8.38
2022-09-23T07:28:45.464Z,8.18
2022-09-23T07:31:15.485Z,8.73
2022-09-23T07:33:44.199Z,8.18
2022-09-23T07:36:15.989Z,8.52
2022-09-23T07:38:45.821Z,8.35
2022-09-23T07:41:16.798Z,7.97
2022-09-23T07:43:44.666Z,7.78
2022-09-23T07:46:16.126Z,7.93
2022-09-23T07:48:44.526Z,7.75
2022-09-23T07:51:20.075Z,8.10
2022-09-23T07:53:51.608Z,8.70
2022-09-23T07:56:20.251Z,8.20
2022-09-23T07:59:00.612Z,8.57
2022-09-23T08:01:33.663Z,8.23
2022-09-23T08:04:04.312Z,8.50
2022-09-23T08:06:31.896Z,8.30
2022-09-23T08:09:00.671Z,8.70
2022-09-23T08:11:28.141Z,8.10
2022-09-23T08:13:55.969Z,7.85
2022-09-23T08:16:24.403Z,8.37
2022-09-23T08:18:51.648Z,8.32
2022-09-23T08:21:20.998Z,8.27
2022-09-23T08:23:48.722Z,7.88
2022-09-23T08:26:20.876Z,8.52
2022-09-23T08:28:49.910Z,7.90
2022-09-23T08:31:17.174Z,8.32
2022-09-23T08:33:44.378Z,8.32
2022-09-23T08:36:11.538Z,8.13
2022-09-23T08:38:38.663Z,8.37
2022-09-23T08:41:20.407Z,7.97
2022-09-23T08:43:52.002Z,8.27
2022-09-23T08:46:29.921Z,8.48
2022-09-23T08:48:59.553Z,8.70
2022-09-23T08:51:48.364Z,8.55
2022-09-23T08:54:17.717Z,7.80
2022-09-23T08:56:49.098Z,7.88
2022-09-23T08:59:20.949Z,8.27
2022-09-23T09:01:48.104Z,8.20
2022-09-23T09:04:21.582Z,7.97
2022-09-23T09:07:36.244Z,8.02
2022-09-23T09:10:43.870Z,8.10
2022-09-23T09:13:31.837Z,8.07
2022-09-23T09:16:58.976Z,8.35
2022-09-23T09:19:35.678Z,7.80
2022-09-23T09:22:12.445Z,8.00
2022-09-23T09:24:40.269Z,7.30
2022-09-23T09:27:13.941Z,8.23
2022-09-23T09:29:49.977Z,7.78
2022-09-23T09:32:36.145Z,8.13
2022-09-23T09:35:17.996Z,7.88
2022-09-23T09:37:47.704Z,7.90
2022-09-23T09:40:17.086Z,7.80
2022-09-23T09:42:50.331Z,8.05
2022-09-23T09:45:40.134Z,7.78
2022-09-23T09:48:28.534Z,8.07
2022-09-23T09:50:55.917Z,8.03
2022-09-23T09:53:25.339Z,8.00
2022-09-23T09:56:06.700Z,8.18
2022-09-23T09:58:43.818Z,8.27
2022-09-23T10:01:29.343Z,7.93
2022-09-23T10:04:03.450Z,8.15
2022-09-23T10:06:33.189Z,7.75
2022-09-23T10:09:19.404Z,7.47
2022-09-23T10:12:15.793Z,8.20
2022-09-23T10:14:43.711Z,7.65
2022-09-23T10:17:24.336Z,8.15
2022-09-23T10:20:00.662Z,7.87
2022-09-23T10:22:32.594Z,8.10
2022-09-23T10:25:10.451Z,7.78
2022-09-23T10:27:38.735Z,8.27
2022-09-23T10:30:27.004Z,8.10
2022-09-23T10:32:56.784Z,8.60
2022-09-23T10:35:26.420Z,8.52
2022-09-23T10:37:55.991Z,8.18
2022-09-23T10:40:49.544Z,7.90
2022-09-23T10:43:44.206Z,8.30
2022-09-23T10:46:37.678Z,8.30
2022-09-23T10:49:23.518Z,8.13
2022-09-23T10:52:16.076Z,7.85
2022-09-23T10:55:13.609Z,8.20
2022-09-23T10:57:53.169Z,8.57
2022-09-23T11:00:37.794Z,7.80
2022-09-23T11:03:38.556Z,8.48
2022-09-23T11:06:11.653Z,8.02
2022-09-23T11:09:12.938Z,7.53
2022-09-23T11:11:46.222Z,7.60
2022-09-23T11:14:38.758Z,8.37
2022-09-23T11:17:06.000Z,8.30
2022-09-23T11:19:34.019Z,8.10
2022-09-23T11:22:08.976Z,8.25
2022-09-23T11:24:36.149Z,8.00
2022-09-23T11:27:40.161Z,8.10
2022-09-23T11:30:12.651Z,8.05
2022-09-23T11:33:21.490Z,8.07
2022-09-23T11:35:57.986Z,7.97
2022-09-23T11:38:32.934Z,8.35
2022-09-23T11:41:09.227Z,8.43
2022-09-23T11:43:39.241Z,8.60
2022-09-23T11:46:23.476Z,8.70
2022-09-23T11:49:05.258Z,8.23
2022-09-23T11:51:40.346Z,8.20
2022-09-23T11:54:15.187Z,8.70
2022-09-23T11:56:58.688Z,7.80
2022-09-23T12:02:33.598Z,7.70
2022-09-23T12:05:23.490Z,7.95
2022-09-23T12:08:04.882Z,7.40
2022-09-23T12:11:01.443Z,7.40
2022-09-23T12:14:03.279Z,8.55
2022-09-23T12:17:04.653Z,7.45
2022-09-23T12:19:43.666Z,7.23
2022-09-23T12:22:45.731Z,7.28
2022-09-23T12:25:46.408Z,7.47
2022-09-23T12:28:19.558Z,7.25
2022-09-23T12:30:48.746Z,7.60
2022-09-23T12:33:24.460Z,7.22
2022-09-23T12:35:54.387Z,7.68
2022-09-23T12:38:47.919Z,7.30
2022-09-23T12:41:23.349Z,7.43
2022-09-23T12:44:12.806Z,7.50
2022-09-23T12:46:44.537Z,6.80
2022-09-23T12:49:29.664Z,7.63
2022-09-23T12:52:12.073Z,7.15
2022-09-23T12:54:40.946Z,7.15
2022-09-23T12:57:33.073Z,7.63
2022-09-23T13:00:06.582Z,7.53
2022-09-23T13:02:38.542Z,7.35
2022-09-23T13:05:27.126Z,6.93
2022-09-23T13:08:14.981Z,7.10
2022-09-23T13:10:48.220Z,7.50
2022-09-23T13:13:31.600Z,7.03
2022-09-23T13:16:26.010Z,7.43
2022-09-23T13:19:05.402Z,7.55
2022-09-23T13:21:45.626Z,7.32
2022-09-23T13:24:12.765Z,7.50
2022-09-23T13:26:49.332Z,6.97
2022-09-23T13:29:29.169Z,6.88
2022-09-23T13:31:57.794Z,7.03
2022-09-23T13:34:30.764Z,7.20
2022-09-23T13:36:58.772Z,7.03
2022-09-23T13:39:27.539Z,7.60
2022-09-23T13:42:03.126Z,7.72
2022-09-23T13:44:30.543Z,7.60
2022-09-23T13:47:00.386Z,7.55
2022-09-23T13:49:32.691Z,7.30
2022-09-23T13:52:01.081Z,7.57
2022-09-23T13:54:46.545Z,7.47
2022-09-23T13:57:43.415Z,7.15
2022-09-23T14:00:17.715Z,7.60
2022-09-23T14:02:46.887Z,7.37
2022-09-23T14:05:25.250Z,7.87
2022-09-23T14:07:53.974Z,7.40
2022-09-23T14:10:23.694Z,7.28
2022-09-23T14:12:52.549Z,7.63
2022-09-23T14:15:21.423Z,7.88
2022-09-23T14:17:52.283Z,8.00
2022-09-23T14:20:22.092Z,7.60
2022-09-23T14:23:04.468Z,7.20
2022-09-23T14:25:33.157Z,6.88
2022-09-23T14:28:01.109Z,6.50
2022-09-23T14:30:29.239Z,7.68
2022-09-23T14:32:57.175Z,7.00
2022-09-23T14:35:38.025Z,7.17
2022-09-23T14:38:24.583Z,7.45
2022-09-23T14:41:15.550Z,7.50
2022-09-23T14:44:00.573Z,7.47
2022-09-23T14:46:31.229Z,7.30
2022-09-23T14:49:03.816Z,7.63
2022-09-23T14:51:51.812Z,6.70
2022-09-23T14:54:40.963Z,7.23
2022-09-23T14:57:22.529Z,6.90
2022-09-23T14:59:53.885Z,6.67
2022-09-23T15:02:31.040Z,6.90
2022-09-23T15:05:15.560Z,7.03
2022-09-23T15:07:51.113Z,6.60
2022-09-23T15:10:32.259Z,6.70
2022-09-23T15:13:06.199Z,7.10
2022-09-23T15:15:33.509Z,6.63
2022-09-23T15:18:15.620Z,6.72
2022-09-23T15:20:56.931Z,6.95
2022-09-23T15:23:51.751Z,7.63
2022-09-23T15:26:21.154Z,7.13
2022-09-23T15:28:49.674Z,6.90
2022-09-23T15:31:22.985Z,7.13
2022-09-23T15:33:51.187Z,7.57
2022-09-23T15:36:25.734Z,7.50
2022-09-23T15:38:55.004Z,7.35
2022-09-23T15:41:23.991Z,7.65
2022-09-23T15:43:51.539Z,7.55
2022-09-23T15:46:22.622Z,7.82
2022-09-23T15:49:00.604Z,8.15
2022-09-23T15:51:28.530Z,8.30
2022-09-23T15:53:56.309Z,8.73
2022-09-23T15:56:24.588Z,8.23
2022-09-23T15:58:51.742Z,7.75
2022-09-23T16:01:26.764Z,8.27
2022-09-23T16:03:54.325Z,7.65
2022-09-23T16:06:24.255Z,8.57
2022-09-23T16:08:52.179Z,9.30
2022-09-23T16:11:24.300Z,8.68
2022-09-23T16:13:51.617Z,8.52
2022-09-23T16:16:22.027Z,8.80
2022-09-23T16:18:51.138Z,8.30
2022-09-23T16:21:21.918Z,8.80
2022-09-23T16:23:51.206Z,9.93
2022-09-23T16:26:22.428Z,9.95
2022-09-23T16:28:51.028Z,10.27
2022-09-23T16:31:18.680Z,9.70
2022-09-23T16:33:47.014Z,9.95
2022-09-23T16:36:31.805Z,10.75
2022-09-23T16:39:01.001Z,11.13
2022-09-23T16:41:29.509Z,10.57
2022-09-23T16:43:57.550Z,9.90
2022-09-23T16:46:24.863Z,11.30
2022-09-23T16:48:53.089Z,10.93
2022-09-23T16:51:23.659Z,11.20
2022-09-23T16:53:51.989Z,11.98
2022-09-23T16:56:27.251Z,10.70
2022-09-23T16:58:55.963Z,12.20
2022-09-23T17:01:44.739Z,12.85
2022-09-23T17:04:13.115Z,14.07
2022-09-23T17:06:44.201Z,12.97
2022-09-23T17:09:12.043Z,13.73
2022-09-23T17:11:39.418Z,14.60
2022-09-23T17:14:06.730Z,11.65
2022-09-23T17:16:34.860Z,12.50
2022-09-23T17:19:10.292Z,10.27
2022-09-23T17:21:37.811Z,9.93
2022-09-23T17:24:05.619Z,10.98
2022-09-23T17:26:32.814Z,10.88
2022-09-23T17:29:01.409Z,9.98
2022-09-23T17:31:28.726Z,9.25
2022-09-23T17:33:56.102Z,8.02
2022-09-23T17:36:23.439Z,9.57
2022-09-23T17:38:53.754Z,8.60
2022-09-23T17:41:21.536Z,8.70
2022-09-23T17:43:55.038Z,8.70
2022-09-23T17:46:23.092Z,9.43
2022-09-23T17:48:55.428Z,9.60
2022-09-23T17:51:23.955Z,11.65
2022-09-23T17:53:51.524Z,14.43
2022-09-23T17:56:20.933Z,15.43
2022-09-23T17:58:49.302Z,18.38
2022-09-23T18:01:20.101Z,19.92
2022-09-23T18:03:48.696Z,17.27
2022-09-23T18:06:18.495Z,16.23
2022-09-23T18:08:47.818Z,16.05
2022-09-23T18:11:19.621Z,12.60
2022-09-23T18:13:54.919Z,12.70
2022-09-23T18:16:24.613Z,9.43
2022-09-23T18:18:57.139Z,8.70
2022-09-23T18:21:26.500Z,10.20
2022-09-23T18:23:53.936Z,9.77
2022-09-23T18:26:25.469Z,10.80
2022-09-23T18:28:55.468Z,12.30
2022-09-23T18:31:23.513Z,12.27
2022-09-23T18:33:52.056Z,12.05
2022-09-23T18:36:20.652Z,11.80
2022-09-23T18:38:48.495Z,11.38
2022-09-23T18:41:16.010Z,11.10
2022-09-23T18:43:48.161Z,10.57
2022-09-23T18:46:24.224Z,11.02
2022-09-23T18:49:10.775Z,10.98
2022-09-23T18:51:46.600Z,10.65
2022-09-23T18:54:13.783Z,11.82
2022-09-23T18:56:42.944Z,11.65
2022-09-23T18:59:14.481Z,12.13
2022-09-23T19:01:41.993Z,13.50
2022-09-23T19:04:09.716Z,13.40
2022-09-23T19:06:37.289Z,13.70
2022-09-23T19:09:06.522Z,14.00
2022-09-23T19:11:36.161Z,15.43
2022-09-23T19:14:09.925Z,16.25
2022-09-23T19:16:39.836Z,14.38
2022-09-23T19:19:07.307Z,15.60
2022-09-23T19:21:35.029Z,16.30
2022-09-23T19:24:05.163Z,17.02
2022-09-23T19:26:38.633Z,17.92
2022-09-23T19:29:08.095Z,18.80
2022-09-23T19:31:39.927Z,20.02
2022-09-23T19:34:16.308Z,22.52
2022-09-23T19:36:45.675Z,24.20
2022-09-23T19:39:19.405Z,27.02
2022-09-23T19:41:47.179Z,27.33
2022-09-23T19:44:14.717Z,28.83
2022-09-23T19:46:45.065Z,27.75
2022-09-23T19:49:13.262Z,26.92
2022-09-23T19:51:41.033Z,27.73
2022-09-23T19:54:09.186Z,26.73
2022-09-23T19:56:36.683Z,13.93
2022-09-23T19:59:06.706Z,14.33
2022-09-23T20:01:34.233Z,15.88
2022-09-23T20:04:01.825Z,16.40
2022-09-23T20:06:31.012Z,14.10
2022-09-23T20:09:00.664Z,14.70
2022-09-23T20:11:28.962Z,14.07
2022-09-23T20:14:01.243Z,13.27
2022-09-23T20:16:31.997Z,13.65
2022-09-23T20:19:00.151Z,15.70
2022-09-23T20:21:29.105Z,16.83
2022-09-23T20:23:57.267Z,14.73
2022-09-23T20:26:43.174Z,15.75
2022-09-23T20:29:11.130Z,17.60
2022-09-23T20:31:40.292Z,17.50
2022-09-23T20:34:08.286Z,17.52
2022-09-23T20:36:35.954Z,17.00
2022-09-23T20:39:08.099Z,17.65
2022-09-23T20:41:37.693Z,18.30
2022-09-23T20:44:12.656Z,17.65
2022-09-23T20:46:46.951Z,18.00
2022-09-23T20:49:16.326Z,17.80
2022-09-23T20:51:43.682Z,18.60
2022-09-23T20:54:12.038Z,18.40
2022-09-23T20:56:39.393Z,19.27
2022-09-23T20:59:06.657Z,18.77
2022-09-23T21:01:35.448Z,18.42
2022-09-23T21:04:07.862Z,18.23
2022-09-23T21:06:36.634Z,16.13
2022-09-23T21:09:05.228Z,16.15
2022-09-23T21:11:32.600Z,16.63
2022-09-23T21:14:01.381Z,16.35
2022-09-23T21:16:29.250Z,16.17
2022-09-23T21:18:57.570Z,16.07
2022-09-23T21:21:25.001Z,16.20
2022-09-23T21:23:52.366Z,15.97
2022-09-23T21:26:24.723Z,15.32
2022-09-23T21:28:59.060Z,14.73
2022-09-23T21:31:35.565Z,14.25
2022-09-23T21:34:09.122Z,12.10
2022-09-23T21:36:38.216Z,12.20
2022-09-23T21:39:06.698Z,12.25
2022-09-23T21:41:33.923Z,11.93
2022-09-23T21:44:04.624Z,11.10
2022-09-23T21:46:35.693Z,11.32
2022-09-23T21:49:04.106Z,11.40
2022-09-23T21:51:40.340Z,12.50
2022-09-23T21:54:16.729Z,12.25
2022-09-23T21:56:44.495Z,12.60
2022-09-23T21:59:11.842Z,12.55
2022-09-23T22:01:44.216Z,12.98
2022-09-23T22:04:18.051Z,13.55
2022-09-23T22:06:46.021Z,14.98
2022-09-23T22:09:16.104Z,16.15
2022-09-23T22:12:02.499Z,16.63
2022-09-23T22:14:30.539Z,19.35
2022-09-23T22:17:03.601Z,18.57
2022-09-23T22:19:36.665Z,20.52
2022-09-23T22:22:13.051Z,21.35
2022-09-23T22:24:41.740Z,21.95
2022-09-23T22:27:09.857Z,21.97
2022-09-23T22:29:55.758Z,23.65
2022-09-23T22:32:35.191Z,23.70
2022-09-23T22:35:02.990Z,23.77
2022-09-23T22:37:34.542Z,25.75
2022-09-23T22:40:07.473Z,26.60
2022-09-23T22:42:36.421Z,26.25
2022-09-23T22:45:05.679Z,27.40
2022-09-23T22:47:37.609Z,28.00
2022-09-23T22:50:06.484Z,29.80
2022-09-23T22:52:34.753Z,29.67
2022-09-23T22:55:03.400Z,29.40
2022-09-23T22:57:31.210Z,29.27
2022-09-23T22:59:58.368Z,28.95
2022-09-23T23:02:25.518Z,28.83
2022-09-23T23:04:52.719Z,27.88
2022-09-23T23:07:21.373Z,27.77
2022-09-23T23:09:52.375Z,28.58
2022-09-23T23:12:20.824Z,27.40
2022-09-23T23:14:49.258Z,28.13
2022-09-23T23:17:18.543Z,27.30
2022-09-23T23:19:45.935Z,25.92
2022-09-23T23:22:13.143Z,25.73
2022-09-23T23:24:40.353Z,25.40
2022-09-23T23:27:07.492Z,25.70
2022-09-23T23:29:34.650Z,25.00
2022-09-23T23:32:02.438Z,25.25
2022-09-23T23:34:29.637Z,25.20
2022-09-23T23:36:56.785Z,24.42
2022-09-23T23:39:25.389Z,26.17
2022-09-23T23:41:54.905Z,24.70
2022-09-23T23:44:23.797Z,26.77
2022-09-23T23:46:51.609Z,25.67
2022-09-23T23:49:19.211Z,26.23
2022-09-23T23:51:47.705Z,25.25
2022-09-23T23:54:15.249Z,28.02
2022-09-23T23:56:42.896Z,25.77
2022-09-23T23:59:10.152Z,25.80
